sensor_id;sensor_type;location;lat;lon;timestamp;P1;durP1;ratioP1;P2;durP2;ratioP2
9388;SDS011;4734;52.778;6.798;2024-02-26T00:00:41;7.57;;;6.77;;
9388;SDS011;4734;52.778;6.798;2024-02-26T00:03:27;8.50;;;7.17;;
9388;SDS011;4734;52.778;6.798;2024-02-26T00:06:12;9.53;;;7.87;;
9388;SDS011;4734;52.778;6.798;2024-02-26T00:08:58;7.53;;;6.77;;
9388;SDS011;4734;52.778;6.798;2024-02-26T00:11:44;8.10;;;7.00;;
9388;SDS011;4734;52.778;6.798;2024-02-26T00:14:30;9.27;;;7.03;;
9388;SDS011;4734;52.778;6.798;2024-02-26T00:17:17;9.37;;;6.93;;
9388;SDS011;4734;52.778;6.798;2024-02-26T00:20:02;8.77;;;7.03;;
9388;SDS011;4734;52.778;6.798;2024-02-26T00:22:52;8.27;;;7.43;;
9388;SDS011;4734;52.778;6.798;2024-02-26T00:25:37;8.77;;;6.87;;
9388;SDS011;4734;52.778;6.798;2024-02-26T00:28:23;9.90;;;7.60;;
9388;SDS011;4734;52.778;6.798;2024-02-26T00:31:11;7.87;;;6.97;;
9388;SDS011;4734;52.778;6.798;2024-02-26T00:33:58;8.20;;;7.00;;
9388;SDS011;4734;52.778;6.798;2024-02-26T00:36:43;8.60;;;7.23;;
9388;SDS011;4734;52.778;6.798;2024-02-26T00:39:29;9.53;;;7.50;;
9388;SDS011;4734;52.778;6.798;2024-02-26T00:42:14;10.23;;;7.80;;
9388;SDS011;4734;52.778;6.798;2024-02-26T00:45:00;10.07;;;8.17;;
9388;SDS011;4734;52.778;6.798;2024-02-26T00:47:46;9.93;;;8.53;;
9388;SDS011;4734;52.778;6.798;2024-02-26T00:50:33;7.97;;;7.10;;
9388;SDS011;4734;52.778;6.798;2024-02-26T00:53:19;13.40;;;9.60;;
9388;SDS011;4734;52.778;6.798;2024-02-26T00:56:05;9.50;;;8.50;;
9388;SDS011;4734;52.778;6.798;2024-02-26T00:58:51;10.20;;;8.10;;
9388;SDS011;4734;52.778;6.798;2024-02-26T01:01:36;10.93;;;8.10;;
9388;SDS011;4734;52.778;6.798;2024-02-26T01:04:22;11.43;;;8.50;;
9388;SDS011;4734;52.778;6.798;2024-02-26T01:07:09;8.97;;;8.03;;
9388;SDS011;4734;52.778;6.798;2024-02-26T01:09:55;9.20;;;8.30;;
9388;SDS011;4734;52.778;6.798;2024-02-26T01:12:40;9.10;;;7.63;;
9388;SDS011;4734;52.778;6.798;2024-02-26T01:15:26;9.60;;;7.97;;
9388;SDS011;4734;52.778;6.798;2024-02-26T01:18:12;10.03;;;7.73;;
9388;SDS011;4734;52.778;6.798;2024-02-26T01:20:57;11.20;;;7.80;;
9388;SDS011;4734;52.778;6.798;2024-02-26T01:23:44;8.43;;;7.63;;
9388;SDS011;4734;52.778;6.798;2024-02-26T01:26:30;9.03;;;7.53;;
9388;SDS011;4734;52.778;6.798;2024-02-26T01:29:15;9.57;;;7.00;;
9388;SDS011;4734;52.778;6.798;2024-02-26T01:32:01;8.60;;;7.20;;
9388;SDS011;4734;52.778;6.798;2024-02-26T01:34:48;8.70;;;7.80;;
9388;SDS011;4734;52.778;6.798;2024-02-26T01:37:34;10.47;;;8.63;;
9388;SDS011;4734;52.778;6.798;2024-02-26T01:40:21;9.30;;;7.10;;
9388;SDS011;4734;52.778;6.798;2024-02-26T01:43:06;7.80;;;7.00;;
9388;SDS011;4734;52.778;6.798;2024-02-26T01:45:52;11.43;;;7.60;;
9388;SDS011;4734;52.778;6.798;2024-02-26T01:48:39;9.03;;;7.43;;
9388;SDS011;4734;52.778;6.798;2024-02-26T01:51:25;9.83;;;7.63;;
9388;SDS011;4734;52.778;6.798;2024-02-26T01:54:10;7.77;;;6.80;;
9388;SDS011;4734;52.778;6.798;2024-02-26T01:56:57;9.13;;;7.80;;
9388;SDS011;4734;52.778;6.798;2024-02-26T01:59:43;9.03;;;6.63;;
9388;SDS011;4734;52.778;6.798;2024-02-26T02:02:29;8.23;;;6.63;;
9388;SDS011;4734;52.778;6.798;2024-02-26T02:05:15;10.90;;;8.00;;
9388;SDS011;4734;52.778;6.798;2024-02-26T02:08:02;9.13;;;7.03;;
9388;SDS011;4734;52.778;6.798;2024-02-26T02:10:49;10.10;;;7.73;;
9388;SDS011;4734;52.778;6.798;2024-02-26T02:13:36;10.33;;;7.60;;
9388;SDS011;4734;52.778;6.798;2024-02-26T02:16:22;9.53;;;8.53;;
9388;SDS011;4734;52.778;6.798;2024-02-26T02:19:07;8.77;;;7.73;;
9388;SDS011;4734;52.778;6.798;2024-02-26T02:21:54;10.73;;;8.13;;
9388;SDS011;4734;52.778;6.798;2024-02-26T02:24:39;10.63;;;7.83;;
9388;SDS011;4734;52.778;6.798;2024-02-26T02:27:25;10.27;;;7.70;;
9388;SDS011;4734;52.778;6.798;2024-02-26T02:30:12;8.93;;;7.67;;
9388;SDS011;4734;52.778;6.798;2024-02-26T02:32:59;8.70;;;7.23;;
9388;SDS011;4734;52.778;6.798;2024-02-26T02:35:44;10.20;;;7.97;;
9388;SDS011;4734;52.778;6.798;2024-02-26T02:38:31;10.47;;;8.07;;
9388;SDS011;4734;52.778;6.798;2024-02-26T02:41:17;9.70;;;8.07;;
9388;SDS011;4734;52.778;6.798;2024-02-26T02:44:03;9.73;;;8.60;;
9388;SDS011;4734;52.778;6.798;2024-02-26T02:46:49;11.53;;;8.67;;
9388;SDS011;4734;52.778;6.798;2024-02-26T02:49:36;11.83;;;8.63;;
9388;SDS011;4734;52.778;6.798;2024-02-26T02:52:22;11.53;;;8.90;;
9388;SDS011;4734;52.778;6.798;2024-02-26T02:55:09;11.60;;;8.83;;
9388;SDS011;4734;52.778;6.798;2024-02-26T02:57:54;13.03;;;8.43;;
9388;SDS011;4734;52.778;6.798;2024-02-26T03:00:40;13.50;;;9.43;;
9388;SDS011;4734;52.778;6.798;2024-02-26T03:03:26;13.43;;;10.33;;
9388;SDS011;4734;52.778;6.798;2024-02-26T03:06:12;12.37;;;9.20;;
9388;SDS011;4734;52.778;6.798;2024-02-26T03:08:58;13.33;;;9.63;;
9388;SDS011;4734;52.778;6.798;2024-02-26T03:11:46;11.87;;;8.30;;
9388;SDS011;4734;52.778;6.798;2024-02-26T03:14:31;13.17;;;9.53;;
9388;SDS011;4734;52.778;6.798;2024-02-26T03:17:17;12.73;;;8.90;;
9388;SDS011;4734;52.778;6.798;2024-02-26T03:20:04;13.33;;;9.40;;
9388;SDS011;4734;52.778;6.798;2024-02-26T03:22:52;12.90;;;9.83;;
9388;SDS011;4734;52.778;6.798;2024-02-26T03:25:37;13.10;;;9.43;;
9388;SDS011;4734;52.778;6.798;2024-02-26T03:28:24;16.50;;;10.80;;
9388;SDS011;4734;52.778;6.798;2024-02-26T03:31:10;11.87;;;8.53;;
9388;SDS011;4734;52.778;6.798;2024-02-26T03:33:55;14.63;;;9.93;;
9388;SDS011;4734;52.778;6.798;2024-02-26T03:36:41;17.00;;;10.40;;
9388;SDS011;4734;52.778;6.798;2024-02-26T03:39:26;14.80;;;11.13;;
9388;SDS011;4734;52.778;6.798;2024-02-26T03:42:12;17.73;;;10.57;;
9388;SDS011;4734;52.778;6.798;2024-02-26T03:44:59;17.53;;;12.50;;
9388;SDS011;4734;52.778;6.798;2024-02-26T03:47:44;16.37;;;11.30;;
9388;SDS011;4734;52.778;6.798;2024-02-26T03:50:30;22.13;;;13.93;;
9388;SDS011;4734;52.778;6.798;2024-02-26T03:53:16;21.43;;;13.47;;
9388;SDS011;4734;52.778;6.798;2024-02-26T03:56:02;21.73;;;12.77;;
9388;SDS011;4734;52.778;6.798;2024-02-26T03:58:49;20.63;;;12.90;;
9388;SDS011;4734;52.778;6.798;2024-02-26T04:01:36;20.97;;;14.27;;
9388;SDS011;4734;52.778;6.798;2024-02-26T04:04:21;17.93;;;12.13;;
9388;SDS011;4734;52.778;6.798;2024-02-26T04:07:07;20.50;;;13.23;;
9388;SDS011;4734;52.778;6.798;2024-02-26T04:09:52;19.80;;;13.33;;
9388;SDS011;4734;52.778;6.798;2024-02-26T04:12:38;20.37;;;13.90;;
9388;SDS011;4734;52.778;6.798;2024-02-26T04:15:25;21.40;;;13.97;;
9388;SDS011;4734;52.778;6.798;2024-02-26T04:18:12;19.40;;;12.57;;
9388;SDS011;4734;52.778;6.798;2024-02-26T04:20:57;18.50;;;11.83;;
9388;SDS011;4734;52.778;6.798;2024-02-26T04:23:43;17.57;;;13.70;;
9388;SDS011;4734;52.778;6.798;2024-02-26T04:26:29;19.13;;;12.73;;
9388;SDS011;4734;52.778;6.798;2024-02-26T04:29:15;20.27;;;13.50;;
9388;SDS011;4734;52.778;6.798;2024-02-26T04:32:01;18.60;;;11.97;;
9388;SDS011;4734;52.778;6.798;2024-02-26T04:34:48;18.27;;;13.17;;
9388;SDS011;4734;52.778;6.798;2024-02-26T04:37:34;21.97;;;13.93;;
9388;SDS011;4734;52.778;6.798;2024-02-26T04:40:19;19.80;;;13.67;;
9388;SDS011;4734;52.778;6.798;2024-02-26T04:43:05;18.67;;;12.00;;
9388;SDS011;4734;52.778;6.798;2024-02-26T04:45:50;19.97;;;13.03;;
9388;SDS011;4734;52.778;6.798;2024-02-26T04:48:36;19.63;;;13.27;;
9388;SDS011;4734;52.778;6.798;2024-02-26T04:51:24;20.03;;;12.60;;
9388;SDS011;4734;52.778;6.798;2024-02-26T04:54:09;16.00;;;11.50;;
9388;SDS011;4734;52.778;6.798;2024-02-26T04:56:55;19.20;;;12.77;;
9388;SDS011;4734;52.778;6.798;2024-02-26T04:59:41;19.43;;;12.80;;
9388;SDS011;4734;52.778;6.798;2024-02-26T05:02:27;16.97;;;11.07;;
9388;SDS011;4734;52.778;6.798;2024-02-26T05:05:14;16.97;;;11.83;;
9388;SDS011;4734;52.778;6.798;2024-02-26T05:08:01;16.47;;;11.87;;
9388;SDS011;4734;52.778;6.798;2024-02-26T05:10:46;16.43;;;10.57;;
9388;SDS011;4734;52.778;6.798;2024-02-26T05:13:32;11.63;;;8.40;;
9388;SDS011;4734;52.778;6.798;2024-02-26T05:16:18;14.27;;;9.80;;
9388;SDS011;4734;52.778;6.798;2024-02-26T05:19:04;15.67;;;11.00;;
9388;SDS011;4734;52.778;6.798;2024-02-26T05:21:50;11.50;;;8.33;;
9388;SDS011;4734;52.778;6.798;2024-02-26T05:24:38;12.37;;;9.10;;
9388;SDS011;4734;52.778;6.798;2024-02-26T05:27:24;12.67;;;9.77;;
9388;SDS011;4734;52.778;6.798;2024-02-26T05:30:10;12.27;;;9.23;;
9388;SDS011;4734;52.778;6.798;2024-02-26T05:32:56;11.93;;;8.60;;
9388;SDS011;4734;52.778;6.798;2024-02-26T05:35:42;10.43;;;8.40;;
9388;SDS011;4734;52.778;6.798;2024-02-26T05:38:27;12.47;;;8.20;;
9388;SDS011;4734;52.778;6.798;2024-02-26T05:41:14;7.67;;;6.30;;
9388;SDS011;4734;52.778;6.798;2024-02-26T05:44:00;7.67;;;6.73;;
9388;SDS011;4734;52.778;6.798;2024-02-26T05:46:46;10.30;;;7.63;;
9388;SDS011;4734;52.778;6.798;2024-02-26T05:49:31;8.23;;;6.03;;
9388;SDS011;4734;52.778;6.798;2024-02-26T05:52:17;8.50;;;6.40;;
9388;SDS011;4734;52.778;6.798;2024-02-26T05:55:03;8.67;;;5.97;;
9388;SDS011;4734;52.778;6.798;2024-02-26T05:57:50;8.53;;;6.20;;
9388;SDS011;4734;52.778;6.798;2024-02-26T06:00:36;7.17;;;6.30;;
9388;SDS011;4734;52.778;6.798;2024-02-26T06:03:21;9.27;;;6.67;;
9388;SDS011;4734;52.778;6.798;2024-02-26T06:06:07;6.73;;;5.20;;
9388;SDS011;4734;52.778;6.798;2024-02-26T06:08:53;8.90;;;6.70;;
9388;SDS011;4734;52.778;6.798;2024-02-26T06:11:38;8.40;;;5.90;;
9388;SDS011;4734;52.778;6.798;2024-02-26T06:14:25;6.17;;;5.50;;
9388;SDS011;4734;52.778;6.798;2024-02-26T06:17:11;5.90;;;5.10;;
9388;SDS011;4734;52.778;6.798;2024-02-26T06:19:56;7.07;;;5.27;;
9388;SDS011;4734;52.778;6.798;2024-02-26T06:22:42;7.47;;;5.80;;
9388;SDS011;4734;52.778;6.798;2024-02-26T06:25:28;5.67;;;5.07;;
9388;SDS011;4734;52.778;6.798;2024-02-26T06:28:14;7.80;;;5.33;;
9388;SDS011;4734;52.778;6.798;2024-02-26T06:31:01;5.67;;;4.87;;
9388;SDS011;4734;52.778;6.798;2024-02-26T06:33:46;6.60;;;4.23;;
9388;SDS011;4734;52.778;6.798;2024-02-26T06:36:32;3.67;;;3.30;;
9388;SDS011;4734;52.778;6.798;2024-02-26T06:39:18;3.97;;;3.60;;
9388;SDS011;4734;52.778;6.798;2024-02-26T06:42:04;3.70;;;3.30;;
9388;SDS011;4734;52.778;6.798;2024-02-26T06:44:50;4.93;;;4.40;;
9388;SDS011;4734;52.778;6.798;2024-02-26T06:47:36;5.30;;;4.60;;
9388;SDS011;4734;52.778;6.798;2024-02-26T06:50:22;5.43;;;3.90;;
9388;SDS011;4734;52.778;6.798;2024-02-26T06:53:07;7.03;;;4.90;;
9388;SDS011;4734;52.778;6.798;2024-02-26T06:55:53;4.80;;;4.00;;
9388;SDS011;4734;52.778;6.798;2024-02-26T06:58:39;6.23;;;4.63;;
9388;SDS011;4734;52.778;6.798;2024-02-26T07:01:24;4.17;;;3.77;;
9388;SDS011;4734;52.778;6.798;2024-02-26T07:04:11;5.07;;;3.50;;
9388;SDS011;4734;52.778;6.798;2024-02-26T07:06:57;3.33;;;2.93;;
9388;SDS011;4734;52.778;6.798;2024-02-26T07:09:42;5.83;;;4.60;;
9388;SDS011;4734;52.778;6.798;2024-02-26T07:12:28;4.53;;;3.97;;
9388;SDS011;4734;52.778;6.798;2024-02-26T07:15:14;4.63;;;4.17;;
9388;SDS011;4734;52.778;6.798;2024-02-26T07:17:59;5.37;;;3.87;;
9388;SDS011;4734;52.778;6.798;2024-02-26T07:20:47;3.63;;;2.73;;
9388;SDS011;4734;52.778;6.798;2024-02-26T07:23:33;3.73;;;3.37;;
9388;SDS011;4734;52.778;6.798;2024-02-26T07:26:19;3.87;;;3.27;;
9388;SDS011;4734;52.778;6.798;2024-02-26T07:29:04;3.07;;;2.77;;
9388;SDS011;4734;52.778;6.798;2024-02-26T07:31:50;5.33;;;4.10;;
9388;SDS011;4734;52.778;6.798;2024-02-26T07:34:36;4.63;;;3.40;;
9388;SDS011;4734;52.778;6.798;2024-02-26T07:37:26;4.03;;;3.57;;
9388;SDS011;4734;52.778;6.798;2024-02-26T07:40:12;3.67;;;3.37;;
9388;SDS011;4734;52.778;6.798;2024-02-26T07:42:58;4.13;;;3.47;;
9388;SDS011;4734;52.778;6.798;2024-02-26T07:45:43;3.20;;;3.00;;
9388;SDS011;4734;52.778;6.798;2024-02-26T07:48:29;3.90;;;3.50;;
9388;SDS011;4734;52.778;6.798;2024-02-26T07:51:14;4.63;;;2.93;;
9388;SDS011;4734;52.778;6.798;2024-02-26T07:54:02;3.70;;;3.10;;
9388;SDS011;4734;52.778;6.798;2024-02-26T07:56:48;2.23;;;2.03;;
9388;SDS011;4734;52.778;6.798;2024-02-26T07:59:34;3.50;;;2.90;;
9388;SDS011;4734;52.778;6.798;2024-02-26T08:02:20;3.37;;;2.70;;
9388;SDS011;4734;52.778;6.798;2024-02-26T08:05:06;3.47;;;2.93;;
9388;SDS011;4734;52.778;6.798;2024-02-26T08:07:52;3.70;;;2.70;;
9388;SDS011;4734;52.778;6.798;2024-02-26T08:10:40;3.93;;;2.80;;
9388;SDS011;4734;52.778;6.798;2024-02-26T08:13:25;4.17;;;2.77;;
9388;SDS011;4734;52.778;6.798;2024-02-26T08:16:11;3.00;;;2.70;;
9388;SDS011;4734;52.778;6.798;2024-02-26T08:18:56;3.63;;;2.57;;
9388;SDS011;4734;52.778;6.798;2024-02-26T08:21:42;3.43;;;3.13;;
9388;SDS011;4734;52.778;6.798;2024-02-26T08:24:28;4.03;;;2.43;;
9388;SDS011;4734;52.778;6.798;2024-02-26T08:27:15;3.43;;;3.13;;
9388;SDS011;4734;52.778;6.798;2024-02-26T08:30:01;2.77;;;2.57;;
9388;SDS011;4734;52.778;6.798;2024-02-26T08:32:47;4.00;;;3.03;;
9388;SDS011;4734;52.778;6.798;2024-02-26T08:35:32;3.37;;;3.07;;
9388;SDS011;4734;52.778;6.798;2024-02-26T08:38:18;2.60;;;2.40;;
9388;SDS011;4734;52.778;6.798;2024-02-26T08:41:04;3.83;;;2.90;;
9388;SDS011;4734;52.778;6.798;2024-02-26T08:43:51;3.10;;;2.80;;
9388;SDS011;4734;52.778;6.798;2024-02-26T08:46:36;2.63;;;2.43;;
9388;SDS011;4734;52.778;6.798;2024-02-26T08:49:22;3.30;;;3.00;;
9388;SDS011;4734;52.778;6.798;2024-02-26T08:52:07;3.13;;;2.90;;
9388;SDS011;4734;52.778;6.798;2024-02-26T08:54:53;3.50;;;2.93;;
9388;SDS011;4734;52.778;6.798;2024-02-26T08:57:39;3.33;;;3.03;;
9388;SDS011;4734;52.778;6.798;2024-02-26T09:00:26;5.13;;;3.23;;
9388;SDS011;4734;52.778;6.798;2024-02-26T09:03:11;3.43;;;3.13;;
9388;SDS011;4734;52.778;6.798;2024-02-26T09:05:57;3.40;;;3.10;;
9388;SDS011;4734;52.778;6.798;2024-02-26T09:08:43;2.70;;;2.47;;
9388;SDS011;4734;52.778;6.798;2024-02-26T09:11:28;2.80;;;2.60;;
9388;SDS011;4734;52.778;6.798;2024-02-26T09:14:15;3.67;;;2.90;;
9388;SDS011;4734;52.778;6.798;2024-02-26T09:17:01;3.40;;;2.67;;
9388;SDS011;4734;52.778;6.798;2024-02-26T09:19:47;3.63;;;3.13;;
9388;SDS011;4734;52.778;6.798;2024-02-26T09:22:33;3.57;;;3.27;;
9388;SDS011;4734;52.778;6.798;2024-02-26T09:25:21;3.90;;;3.20;;
9388;SDS011;4734;52.778;6.798;2024-02-26T09:28:07;3.30;;;3.00;;
9388;SDS011;4734;52.778;6.798;2024-02-26T09:30:52;3.70;;;3.40;;
9388;SDS011;4734;52.778;6.798;2024-02-26T09:33:39;4.03;;;3.17;;
9388;SDS011;4734;52.778;6.798;2024-02-26T09:36:25;2.30;;;2.10;;
9388;SDS011;4734;52.778;6.798;2024-02-26T09:39:10;2.67;;;2.47;;
9388;SDS011;4734;52.778;6.798;2024-02-26T09:41:58;2.47;;;2.27;;
9388;SDS011;4734;52.778;6.798;2024-02-26T09:44:47;3.23;;;2.50;;
9388;SDS011;4734;52.778;6.798;2024-02-26T09:47:35;3.50;;;2.83;;
9388;SDS011;4734;52.778;6.798;2024-02-26T09:50:23;3.80;;;3.23;;
9388;SDS011;4734;52.778;6.798;2024-02-26T09:53:10;3.10;;;2.63;;
9388;SDS011;4734;52.778;6.798;2024-02-26T09:55:56;3.43;;;2.90;;
9388;SDS011;4734;52.778;6.798;2024-02-26T09:58:41;2.73;;;2.53;;
9388;SDS011;4734;52.778;6.798;2024-02-26T10:01:29;2.73;;;2.13;;
9388;SDS011;4734;52.778;6.798;2024-02-26T10:04:17;2.70;;;2.50;;
9388;SDS011;4734;52.778;6.798;2024-02-26T10:07:04;3.13;;;2.63;;
9388;SDS011;4734;52.778;6.798;2024-02-26T10:09:54;3.70;;;3.03;;
9388;SDS011;4734;52.778;6.798;2024-02-26T10:12:40;3.20;;;2.90;;
9388;SDS011;4734;52.778;6.798;2024-02-26T10:15:25;3.87;;;2.80;;
9388;SDS011;4734;52.778;6.798;2024-02-26T10:18:11;2.37;;;2.23;;
9388;SDS011;4734;52.778;6.798;2024-02-26T10:21:00;3.20;;;2.90;;
9388;SDS011;4734;52.778;6.798;2024-02-26T10:23:47;3.90;;;3.33;;
9388;SDS011;4734;52.778;6.798;2024-02-26T10:26:34;2.73;;;2.53;;
9388;SDS011;4734;52.778;6.798;2024-02-26T10:29:19;2.67;;;2.47;;
9388;SDS011;4734;52.778;6.798;2024-02-26T10:32:06;3.90;;;2.80;;
9388;SDS011;4734;52.778;6.798;2024-02-26T10:34:55;3.50;;;3.13;;
9388;SDS011;4734;52.778;6.798;2024-02-26T10:37:40;3.33;;;3.03;;
9388;SDS011;4734;52.778;6.798;2024-02-26T10:40:28;3.67;;;2.63;;
9388;SDS011;4734;52.778;6.798;2024-02-26T10:43:13;3.73;;;3.00;;
9388;SDS011;4734;52.778;6.798;2024-02-26T10:45:59;3.10;;;2.37;;
9388;SDS011;4734;52.778;6.798;2024-02-26T10:48:49;3.90;;;3.27;;
9388;SDS011;4734;52.778;6.798;2024-02-26T10:51:35;2.40;;;2.20;;
9388;SDS011;4734;52.778;6.798;2024-02-26T10:54:23;4.67;;;3.63;;
9388;SDS011;4734;52.778;6.798;2024-02-26T10:57:12;2.63;;;2.10;;
9388;SDS011;4734;52.778;6.798;2024-02-26T11:00:00;2.90;;;2.27;;
9388;SDS011;4734;52.778;6.798;2024-02-26T11:02:48;3.30;;;3.00;;
9388;SDS011;4734;52.778;6.798;2024-02-26T11:05:34;4.23;;;3.10;;
9388;SDS011;4734;52.778;6.798;2024-02-26T11:08:21;4.77;;;4.00;;
9388;SDS011;4734;52.778;6.798;2024-02-26T11:11:08;4.40;;;3.70;;
9388;SDS011;4734;52.778;6.798;2024-02-26T11:13:58;4.63;;;3.90;;
9388;SDS011;4734;52.778;6.798;2024-02-26T11:16:46;3.27;;;2.57;;
9388;SDS011;4734;52.778;6.798;2024-02-26T11:19:34;4.70;;;3.97;;
9388;SDS011;4734;52.778;6.798;2024-02-26T11:22:20;4.50;;;4.03;;
9388;SDS011;4734;52.778;6.798;2024-02-26T11:25:07;3.73;;;3.43;;
9388;SDS011;4734;52.778;6.798;2024-02-26T11:27:56;3.47;;;2.93;;
9388;SDS011;4734;52.778;6.798;2024-02-26T11:30:47;4.57;;;4.13;;
9388;SDS011;4734;52.778;6.798;2024-02-26T11:33:34;3.53;;;3.10;;
9388;SDS011;4734;52.778;6.798;2024-02-26T11:36:23;3.83;;;3.33;;
9388;SDS011;4734;52.778;6.798;2024-02-26T11:39:10;4.77;;;4.17;;
9388;SDS011;4734;52.778;6.798;2024-02-26T11:42:04;3.50;;;3.20;;
9388;SDS011;4734;52.778;6.798;2024-02-26T11:44:52;4.57;;;3.67;;
9388;SDS011;4734;52.778;6.798;2024-02-26T11:47:38;6.30;;;3.70;;
9388;SDS011;4734;52.778;6.798;2024-02-26T11:50:35;5.63;;;3.80;;
9388;SDS011;4734;52.778;6.798;2024-02-26T11:53:24;4.50;;;3.97;;
9388;SDS011;4734;52.778;6.798;2024-02-26T11:59:36;5.03;;;4.50;;
9388;SDS011;4734;52.778;6.798;2024-02-26T12:02:39;3.47;;;2.97;;
9388;SDS011;4734;52.778;6.798;2024-02-26T12:05:26;5.67;;;4.40;;
9388;SDS011;4734;52.778;6.798;2024-02-26T12:08:15;5.07;;;4.33;;
9388;SDS011;4734;52.778;6.798;2024-02-26T12:11:03;4.43;;;3.73;;
9388;SDS011;4734;52.778;6.798;2024-02-26T12:13:59;4.67;;;3.87;;
9388;SDS011;4734;52.778;6.798;2024-02-26T12:16:45;3.90;;;3.60;;
9388;SDS011;4734;52.778;6.798;2024-02-26T12:19:33;4.60;;;3.67;;
9388;SDS011;4734;52.778;6.798;2024-02-26T12:22:19;5.77;;;3.90;;
9388;SDS011;4734;52.778;6.798;2024-02-26T12:25:05;5.00;;;3.23;;
9388;SDS011;4734;52.778;6.798;2024-02-26T12:39:56;4.77;;;3.60;;
9388;SDS011;4734;52.778;6.798;2024-02-26T12:42:41;3.30;;;3.00;;
9388;SDS011;4734;52.778;6.798;2024-02-26T12:45:33;3.60;;;3.30;;
9388;SDS011;4734;52.778;6.798;2024-02-26T12:48:19;5.63;;;4.18;;
9388;SDS011;4734;52.778;6.798;2024-02-26T12:51:04;4.93;;;4.43;;
9388;SDS011;4734;52.778;6.798;2024-02-26T12:53:50;3.63;;;3.28;;
9388;SDS011;4734;52.778;6.798;2024-02-26T12:56:38;4.20;;;3.38;;
9388;SDS011;4734;52.778;6.798;2024-02-26T12:59:24;5.03;;;4.30;;
9388;SDS011;4734;52.778;6.798;2024-02-26T13:02:10;3.93;;;3.20;;
9388;SDS011;4734;52.778;6.798;2024-02-26T13:04:55;4.47;;;3.53;;
9388;SDS011;4734;52.778;6.798;2024-02-26T13:07:45;3.57;;;2.43;;
9388;SDS011;4734;52.778;6.798;2024-02-26T13:10:31;4.40;;;3.70;;
9388;SDS011;4734;52.778;6.798;2024-02-26T13:13:19;5.07;;;3.30;;
9388;SDS011;4734;52.778;6.798;2024-02-26T13:16:05;4.97;;;4.17;;
9388;SDS011;4734;52.778;6.798;2024-02-26T13:18:52;8.83;;;3.53;;
9388;SDS011;4734;52.778;6.798;2024-02-26T13:21:37;6.80;;;4.00;;
9388;SDS011;4734;52.778;6.798;2024-02-26T13:24:23;4.03;;;3.63;;
9388;SDS011;4734;52.778;6.798;2024-02-26T13:27:09;5.03;;;4.00;;
9388;SDS011;4734;52.778;6.798;2024-02-26T13:30:04;4.90;;;4.27;;
9388;SDS011;4734;52.778;6.798;2024-02-26T13:32:51;4.70;;;4.23;;
9388;SDS011;4734;52.778;6.798;2024-02-26T13:35:36;4.17;;;3.60;;
9388;SDS011;4734;52.778;6.798;2024-02-26T13:38:22;4.40;;;3.70;;
9388;SDS011;4734;52.778;6.798;2024-02-26T13:41:08;5.40;;;4.47;;
9388;SDS011;4734;52.778;6.798;2024-02-26T13:43:54;5.47;;;4.10;;
9388;SDS011;4734;52.778;6.798;2024-02-26T13:46:42;4.30;;;3.90;;
9388;SDS011;4734;52.778;6.798;2024-02-26T13:49:28;4.73;;;4.23;;
9388;SDS011;4734;52.778;6.798;2024-02-26T13:52:18;4.78;;;4.05;;
9388;SDS011;4734;52.778;6.798;2024-02-26T13:55:07;4.23;;;3.83;;
9388;SDS011;4734;52.778;6.798;2024-02-26T13:57:54;4.97;;;4.28;;
9388;SDS011;4734;52.778;6.798;2024-02-26T14:00:40;6.83;;;4.50;;
9388;SDS011;4734;52.778;6.798;2024-02-26T14:03:35;4.07;;;3.67;;
9388;SDS011;4734;52.778;6.798;2024-02-26T14:06:28;6.80;;;4.80;;
9388;SDS011;4734;52.778;6.798;2024-02-26T14:09:18;6.50;;;4.50;;
9388;SDS011;4734;52.778;6.798;2024-02-26T14:12:06;3.53;;;3.23;;
9388;SDS011;4734;52.778;6.798;2024-02-26T14:14:55;7.60;;;4.73;;
9388;SDS011;4734;52.778;6.798;2024-02-26T14:17:42;4.87;;;4.30;;
9388;SDS011;4734;52.778;6.798;2024-02-26T14:20:30;5.93;;;4.83;;
9388;SDS011;4734;52.778;6.798;2024-02-26T14:23:15;5.30;;;4.75;;
9388;SDS011;4734;52.778;6.798;2024-02-26T14:26:01;6.77;;;4.73;;
9388;SDS011;4734;52.778;6.798;2024-02-26T14:28:47;4.10;;;3.55;;
9388;SDS011;4734;52.778;6.798;2024-02-26T14:31:33;4.00;;;3.40;;
9388;SDS011;4734;52.778;6.798;2024-02-26T14:34:18;5.23;;;4.40;;
9388;SDS011;4734;52.778;6.798;2024-02-26T14:37:05;4.82;;;4.32;;
9388;SDS011;4734;52.778;6.798;2024-02-26T14:39:51;4.82;;;3.85;;
9388;SDS011;4734;52.778;6.798;2024-02-26T14:42:37;7.55;;;5.60;;
9388;SDS011;4734;52.778;6.798;2024-02-26T14:45:23;5.35;;;4.70;;
9388;SDS011;4734;52.778;6.798;2024-02-26T14:48:08;4.88;;;3.53;;
9388;SDS011;4734;52.778;6.798;2024-02-26T14:50:55;6.32;;;4.40;;
9388;SDS011;4734;52.778;6.798;2024-02-26T14:53:42;5.30;;;4.07;;
9388;SDS011;4734;52.778;6.798;2024-02-26T14:56:27;5.00;;;3.57;;
9388;SDS011;4734;52.778;6.798;2024-02-26T14:59:13;5.38;;;4.88;;
9388;SDS011;4734;52.778;6.798;2024-02-26T15:01:58;6.38;;;4.82;;
9388;SDS011;4734;52.778;6.798;2024-02-26T15:04:44;5.85;;;5.20;;
9388;SDS011;4734;52.778;6.798;2024-02-26T15:07:30;6.95;;;5.50;;
9388;SDS011;4734;52.778;6.798;2024-02-26T15:10:17;6.88;;;4.75;;
9388;SDS011;4734;52.778;6.798;2024-02-26T15:13:02;6.25;;;4.90;;
9388;SDS011;4734;52.778;6.798;2024-02-26T15:15:50;6.55;;;5.32;;
9388;SDS011;4734;52.778;6.798;2024-02-26T15:18:36;5.63;;;5.03;;
9388;SDS011;4734;52.778;6.798;2024-02-26T15:21:22;7.13;;;5.13;;
9388;SDS011;4734;52.778;6.798;2024-02-26T15:24:08;9.13;;;5.57;;
9388;SDS011;4734;52.778;6.798;2024-02-26T15:26:56;8.83;;;5.83;;
9388;SDS011;4734;52.778;6.798;2024-02-26T15:29:42;4.13;;;3.70;;
9388;SDS011;4734;52.778;6.798;2024-02-26T15:32:27;7.23;;;4.87;;
9388;SDS011;4734;52.778;6.798;2024-02-26T15:35:13;6.30;;;5.70;;
9388;SDS011;4734;52.778;6.798;2024-02-26T15:37:59;7.47;;;6.23;;
9388;SDS011;4734;52.778;6.798;2024-02-26T15:40:45;6.93;;;6.03;;
9388;SDS011;4734;52.778;6.798;2024-02-26T15:43:32;7.05;;;5.18;;
9388;SDS011;4734;52.778;6.798;2024-02-26T15:46:17;8.90;;;6.83;;
9388;SDS011;4734;52.778;6.798;2024-02-26T15:49:03;8.07;;;6.47;;
9388;SDS011;4734;52.778;6.798;2024-02-26T15:51:49;7.77;;;6.80;;
9388;SDS011;4734;52.778;6.798;2024-02-26T15:54:37;6.27;;;4.90;;
9388;SDS011;4734;52.778;6.798;2024-02-26T15:57:24;6.73;;;6.03;;
9388;SDS011;4734;52.778;6.798;2024-02-26T16:00:12;6.33;;;5.30;;
9388;SDS011;4734;52.778;6.798;2024-02-26T16:02:59;6.90;;;5.87;;
9388;SDS011;4734;52.778;6.798;2024-02-26T16:05:47;6.30;;;5.40;;
9388;SDS011;4734;52.778;6.798;2024-02-26T16:08:33;7.03;;;5.70;;
9388;SDS011;4734;52.778;6.798;2024-02-26T16:11:19;7.37;;;6.30;;
9388;SDS011;4734;52.778;6.798;2024-02-26T16:14:07;8.00;;;5.80;;
9388;SDS011;4734;52.778;6.798;2024-02-26T16:17:06;6.87;;;5.57;;
9388;SDS011;4734;52.778;6.798;2024-02-26T16:19:55;5.67;;;4.50;;
9388;SDS011;4734;52.778;6.798;2024-02-26T16:22:41;9.17;;;6.07;;
9388;SDS011;4734;52.778;6.798;2024-02-26T16:25:27;5.57;;;4.93;;
9388;SDS011;4734;52.778;6.798;2024-02-26T16:28:13;5.10;;;4.47;;
9388;SDS011;4734;52.778;6.798;2024-02-26T16:30:59;8.60;;;5.63;;
9388;SDS011;4734;52.778;6.798;2024-02-26T16:33:47;5.57;;;4.47;;
9388;SDS011;4734;52.778;6.798;2024-02-26T16:36:32;6.43;;;5.77;;
9388;SDS011;4734;52.778;6.798;2024-02-26T16:39:19;7.60;;;6.03;;
9388;SDS011;4734;52.778;6.798;2024-02-26T16:42:04;6.00;;;5.40;;
9388;SDS011;4734;52.778;6.798;2024-02-26T16:44:55;6.00;;;5.27;;
9388;SDS011;4734;52.778;6.798;2024-02-26T16:47:43;6.10;;;5.20;;
9388;SDS011;4734;52.778;6.798;2024-02-26T16:50:30;6.83;;;5.27;;
9388;SDS011;4734;52.778;6.798;2024-02-26T16:53:16;7.20;;;5.10;;
9388;SDS011;4734;52.778;6.798;2024-02-26T16:56:02;5.33;;;4.60;;
9388;SDS011;4734;52.778;6.798;2024-02-26T16:58:53;6.50;;;5.20;;
9388;SDS011;4734;52.778;6.798;2024-02-26T17:01:39;7.83;;;5.50;;
9388;SDS011;4734;52.778;6.798;2024-02-26T17:04:31;6.37;;;5.10;;
9388;SDS011;4734;52.778;6.798;2024-02-26T17:07:18;9.43;;;6.17;;
9388;SDS011;4734;52.778;6.798;2024-02-26T17:10:04;5.40;;;4.53;;
9388;SDS011;4734;52.778;6.798;2024-02-26T17:12:51;6.83;;;5.30;;
9388;SDS011;4734;52.778;6.798;2024-02-26T17:15:36;6.93;;;5.27;;
9388;SDS011;4734;52.778;6.798;2024-02-26T17:18:22;8.57;;;6.03;;
9388;SDS011;4734;52.778;6.798;2024-02-26T17:21:07;6.87;;;5.90;;
9388;SDS011;4734;52.778;6.798;2024-02-26T17:23:54;7.73;;;5.13;;